Robertsonville, Canada
Current Conditions -  °F | °C
As of 1:00 PM on Thursday 30 Oct 2014 (Local Time) from CYQB Reporting Station
Broken Clouds Broken Clouds  
Wind Chill: 40°   Ceiling: 3700
Heat Index: 46°   Visibility: 30mi
Dew Point: 36°   Wind: 16mph
Humidity: 66%   Direction: 240°WSW
Pressure: 29.89"   Gusts: NA
Location:  46.13°N, 71.22°W
Report Text: CYQB 301700Z 24014KT 30SM FEW025 BKN037 08/02 A2989 RMK SC1SC6 SC TR SLP125
Loading
Personal Weather Stations






























Interactive Weather Map
Tropical Storm Tracking
New forecast layout! Learn more

10-Day Weather Forecast

Advertisements
Track Severe Weather on mobile